sensor_id;sensor_type;location;lat;lon;timestamp;temperature;humidity
12025;DHT22;6073;53.230;10.444;2023-04-03T00:01:27;-0.40;99.90
12025;DHT22;6073;53.230;10.444;2023-04-03T00:03:53;-0.50;99.90
12025;DHT22;6073;53.230;10.444;2023-04-03T00:06:20;-0.40;99.90
12025;DHT22;6073;53.230;10.444;2023-04-03T00:08:46;-0.50;99.90
12025;DHT22;6073;53.230;10.444;2023-04-03T00:11:12;-0.50;99.90
12025;DHT22;6073;53.230;10.444;2023-04-03T00:13:38;-0.50;99.90
12025;DHT22;6073;53.230;10.444;2023-04-03T00:16:05;-0.60;99.90
12025;DHT22;6073;53.230;10.444;2023-04-03T00:18:30;-0.60;99.90
12025;DHT22;6073;53.230;10.444;2023-04-03T00:20:56;-0.50;99.90
12025;DHT22;6073;53.230;10.444;2023-04-03T00:23:22;-0.50;99.90
12025;DHT22;6073;53.230;10.444;2023-04-03T00:25:49;-0.60;99.90
12025;DHT22;6073;53.230;10.444;2023-04-03T00:28:15;-0.50;99.90
12025;DHT22;6073;53.230;10.444;2023-04-03T00:30:41;-0.60;99.90
12025;DHT22;6073;53.230;10.444;2023-04-03T00:33:07;-0.60;99.90
12025;DHT22;6073;53.230;10.444;2023-04-03T00:35:34;-0.70;99.90
12025;DHT22;6073;53.230;10.444;2023-04-03T00:38:00;-0.70;99.90
12025;DHT22;6073;53.230;10.444;2023-04-03T00:40:26;-0.70;99.90
12025;DHT22;6073;53.230;10.444;2023-04-03T00:42:56;-0.70;99.90
12025;DHT22;6073;53.230;10.444;2023-04-03T00:45:41;-0.70;99.90
12025;DHT22;6073;53.230;10.444;2023-04-03T00:48:11;-0.70;99.90
12025;DHT22;6073;53.230;10.444;2023-04-03T00:50:40;-0.70;99.90
12025;DHT22;6073;53.230;10.444;2023-04-03T00:53:10;-0.70;99.90
12025;DHT22;6073;53.230;10.444;2023-04-03T00:55:38;-0.70;99.90
12025;DHT22;6073;53.230;10.444;2023-04-03T00:58:05;-0.60;99.90
12025;DHT22;6073;53.230;10.444;2023-04-03T01:00:32;-0.60;99.90
12025;DHT22;6073;53.230;10.444;2023-04-03T01:02:58;-0.60;99.90
12025;DHT22;6073;53.230;10.444;2023-04-03T01:05:23;-0.60;99.90
12025;DHT22;6073;53.230;10.444;2023-04-03T01:07:51;-0.60;99.90
12025;DHT22;6073;53.230;10.444;2023-04-03T01:10:18;-0.60;99.90
12025;DHT22;6073;53.230;10.444;2023-04-03T01:12:47;-0.60;99.90
12025;DHT22;6073;53.230;10.444;2023-04-03T01:15:18;-0.50;99.90
12025;DHT22;6073;53.230;10.444;2023-04-03T01:17:48;-0.60;99.90
12025;DHT22;6073;53.230;10.444;2023-04-03T01:28:15;-0.60;99.90
12025;DHT22;6073;53.230;10.444;2023-04-03T01:33:35;-0.60;99.90
12025;DHT22;6073;53.230;10.444;2023-04-03T01:36:02;-0.60;99.90
12025;DHT22;6073;53.230;10.444;2023-04-03T01:38:28;-0.60;99.90
12025;DHT22;6073;53.230;10.444;2023-04-03T01:40:54;-0.60;99.90
12025;DHT22;6073;53.230;10.444;2023-04-03T01:43:19;-0.60;99.90
12025;DHT22;6073;53.230;10.444;2023-04-03T01:45:45;-0.70;99.90
12025;DHT22;6073;53.230;10.444;2023-04-03T01:48:12;-0.80;99.90
12025;DHT22;6073;53.230;10.444;2023-04-03T01:50:38;-0.80;99.90
12025;DHT22;6073;53.230;10.444;2023-04-03T01:53:04;-0.80;99.90
12025;DHT22;6073;53.230;10.444;2023-04-03T01:55:30;-0.70;99.90
12025;DHT22;6073;53.230;10.444;2023-04-03T01:57:55;-0.80;99.90
12025;DHT22;6073;53.230;10.444;2023-04-03T02:00:21;-0.80;99.90
12025;DHT22;6073;53.230;10.444;2023-04-03T02:02:47;-0.80;99.90
12025;DHT22;6073;53.230;10.444;2023-04-03T02:05:12;-0.80;99.90
12025;DHT22;6073;53.230;10.444;2023-04-03T02:07:38;-0.80;99.90
12025;DHT22;6073;53.230;10.444;2023-04-03T02:10:03;-0.90;99.90
12025;DHT22;6073;53.230;10.444;2023-04-03T02:12:29;-1.00;99.90
12025;DHT22;6073;53.230;10.444;2023-04-03T02:14:55;-1.10;99.90
12025;DHT22;6073;53.230;10.444;2023-04-03T02:17:20;-1.20;99.90
12025;DHT22;6073;53.230;10.444;2023-04-03T02:19:46;-1.20;99.90
12025;DHT22;6073;53.230;10.444;2023-04-03T02:22:11;-1.20;99.90
12025;DHT22;6073;53.230;10.444;2023-04-03T02:24:37;-1.20;99.90
12025;DHT22;6073;53.230;10.444;2023-04-03T02:27:04;-1.30;99.90
12025;DHT22;6073;53.230;10.444;2023-04-03T02:29:30;-1.30;99.90
12025;DHT22;6073;53.230;10.444;2023-04-03T02:31:55;-1.30;99.90
12025;DHT22;6073;53.230;10.444;2023-04-03T02:34:21;-1.30;99.90
12025;DHT22;6073;53.230;10.444;2023-04-03T02:36:46;-1.20;99.90
12025;DHT22;6073;53.230;10.444;2023-04-03T02:39:12;-1.20;99.90
12025;DHT22;6073;53.230;10.444;2023-04-03T02:41:38;-1.20;99.90
12025;DHT22;6073;53.230;10.444;2023-04-03T02:44:05;-1.20;99.90
12025;DHT22;6073;53.230;10.444;2023-04-03T02:46:31;-1.20;99.90
12025;DHT22;6073;53.230;10.444;2023-04-03T02:48:57;-1.20;99.90
12025;DHT22;6073;53.230;10.444;2023-04-03T02:51:23;-1.20;99.90
12025;DHT22;6073;53.230;10.444;2023-04-03T02:53:49;-1.20;99.90
12025;DHT22;6073;53.230;10.444;2023-04-03T02:56:15;-1.20;99.90
12025;DHT22;6073;53.230;10.444;2023-04-03T02:58:42;-1.20;99.90
12025;DHT22;6073;53.230;10.444;2023-04-03T03:01:08;-1.20;99.90
12025;DHT22;6073;53.230;10.444;2023-04-03T03:03:33;-1.20;99.90
12025;DHT22;6073;53.230;10.444;2023-04-03T03:06:07;-1.20;99.90
12025;DHT22;6073;53.230;10.444;2023-04-03T03:08:33;-1.20;99.90
12025;DHT22;6073;53.230;10.444;2023-04-03T03:10:59;-1.20;99.90
12025;DHT22;6073;53.230;10.444;2023-04-03T03:13:25;-1.20;99.90
12025;DHT22;6073;53.230;10.444;2023-04-03T03:15:51;-1.30;99.90
12025;DHT22;6073;53.230;10.444;2023-04-03T03:18:16;-1.30;99.90
12025;DHT22;6073;53.230;10.444;2023-04-03T03:20:42;-1.20;99.90
12025;DHT22;6073;53.230;10.444;2023-04-03T03:23:08;-1.20;99.90
12025;DHT22;6073;53.230;10.444;2023-04-03T03:25:38;-1.20;99.90
12025;DHT22;6073;53.230;10.444;2023-04-03T03:28:03;-1.20;99.90
12025;DHT22;6073;53.230;10.444;2023-04-03T03:30:29;-1.20;99.90
12025;DHT22;6073;53.230;10.444;2023-04-03T03:32:54;-1.20;99.90
12025;DHT22;6073;53.230;10.444;2023-04-03T03:35:20;-1.20;99.90
12025;DHT22;6073;53.230;10.444;2023-04-03T03:37:45;-1.30;99.90
12025;DHT22;6073;53.230;10.444;2023-04-03T03:40:11;-1.20;99.90
12025;DHT22;6073;53.230;10.444;2023-04-03T03:42:38;-1.20;99.90
12025;DHT22;6073;53.230;10.444;2023-04-03T03:45:04;-1.20;99.90
12025;DHT22;6073;53.230;10.444;2023-04-03T03:47:30;-1.20;99.90
12025;DHT22;6073;53.230;10.444;2023-04-03T03:49:56;-1.20;99.90
12025;DHT22;6073;53.230;10.444;2023-04-03T03:52:21;-1.20;99.90
12025;DHT22;6073;53.230;10.444;2023-04-03T03:54:47;-1.20;99.90
12025;DHT22;6073;53.230;10.444;2023-04-03T03:57:12;-1.20;99.90
12025;DHT22;6073;53.230;10.444;2023-04-03T03:59:38;-1.30;99.90
12025;DHT22;6073;53.230;10.444;2023-04-03T04:02:05;-1.30;99.90
12025;DHT22;6073;53.230;10.444;2023-04-03T04:04:31;-1.30;99.90
12025;DHT22;6073;53.230;10.444;2023-04-03T04:06:56;-1.30;99.90
12025;DHT22;6073;53.230;10.444;2023-04-03T04:09:22;-1.30;99.90
12025;DHT22;6073;53.230;10.444;2023-04-03T04:11:48;-1.30;99.90
12025;DHT22;6073;53.230;10.444;2023-04-03T04:14:13;-1.20;99.90
12025;DHT22;6073;53.230;10.444;2023-04-03T04:16:39;-1.30;99.90
12025;DHT22;6073;53.230;10.444;2023-04-03T04:19:04;-1.30;99.90
12025;DHT22;6073;53.230;10.444;2023-04-03T04:21:30;-1.40;99.90
12025;DHT22;6073;53.230;10.444;2023-04-03T04:23:55;-1.40;99.90
12025;DHT22;6073;53.230;10.444;2023-04-03T04:26:21;-1.40;99.90
12025;DHT22;6073;53.230;10.444;2023-04-03T04:28:47;-1.40;99.90
12025;DHT22;6073;53.230;10.444;2023-04-03T04:31:12;-1.40;99.90
12025;DHT22;6073;53.230;10.444;2023-04-03T04:33:38;-1.40;99.90
12025;DHT22;6073;53.230;10.444;2023-04-03T04:36:03;-1.40;99.90
12025;DHT22;6073;53.230;10.444;2023-04-03T04:38:29;-1.50;99.90
12025;DHT22;6073;53.230;10.444;2023-04-03T04:40:54;-1.50;99.90
12025;DHT22;6073;53.230;10.444;2023-04-03T04:43:20;-1.50;99.90
12025;DHT22;6073;53.230;10.444;2023-04-03T04:45:46;-1.50;99.90
12025;DHT22;6073;53.230;10.444;2023-04-03T04:48:11;-1.50;99.90
12025;DHT22;6073;53.230;10.444;2023-04-03T04:50:37;-1.50;99.90
12025;DHT22;6073;53.230;10.444;2023-04-03T04:53:02;-1.50;99.90
12025;DHT22;6073;53.230;10.444;2023-04-03T04:55:29;-1.50;99.90
12025;DHT22;6073;53.230;10.444;2023-04-03T04:57:55;-1.50;99.90
12025;DHT22;6073;53.230;10.444;2023-04-03T05:00:21;-1.50;99.90
12025;DHT22;6073;53.230;10.444;2023-04-03T05:02:46;-1.50;99.90
12025;DHT22;6073;53.230;10.444;2023-04-03T05:05:12;-1.50;99.90
12025;DHT22;6073;53.230;10.444;2023-04-03T05:07:37;-1.40;99.90
12025;DHT22;6073;53.230;10.444;2023-04-03T05:10:03;-1.40;99.90
12025;DHT22;6073;53.230;10.444;2023-04-03T05:12:29;-1.40;99.90
12025;DHT22;6073;53.230;10.444;2023-04-03T05:14:55;-1.30;99.90
12025;DHT22;6073;53.230;10.444;2023-04-03T05:17:20;-1.30;99.90
12025;DHT22;6073;53.230;10.444;2023-04-03T05:19:46;-1.30;99.90
12025;DHT22;6073;53.230;10.444;2023-04-03T05:22:11;-1.20;99.90
12025;DHT22;6073;53.230;10.444;2023-04-03T05:24:37;-1.20;99.90
12025;DHT22;6073;53.230;10.444;2023-04-03T05:27:03;-1.10;99.90
12025;DHT22;6073;53.230;10.444;2023-04-03T05:29:28;-1.10;99.90
12025;DHT22;6073;53.230;10.444;2023-04-03T05:31:54;-1.00;99.90
12025;DHT22;6073;53.230;10.444;2023-04-03T05:34:20;-1.00;99.90
12025;DHT22;6073;53.230;10.444;2023-04-03T05:36:46;-0.90;99.90
12025;DHT22;6073;53.230;10.444;2023-04-03T05:39:11;-0.80;99.90
12025;DHT22;6073;53.230;10.444;2023-04-03T05:41:37;-0.70;99.90
12025;DHT22;6073;53.230;10.444;2023-04-03T05:44:02;-0.70;99.90
12025;DHT22;6073;53.230;10.444;2023-04-03T05:46:28;-0.60;99.90
12025;DHT22;6073;53.230;10.444;2023-04-03T05:48:53;-0.50;99.90
12025;DHT22;6073;53.230;10.444;2023-04-03T05:51:23;-0.50;99.90
12025;DHT22;6073;53.230;10.444;2023-04-03T05:53:52;-0.40;99.90
12025;DHT22;6073;53.230;10.444;2023-04-03T05:56:20;-0.30;99.90
12025;DHT22;6073;53.230;10.444;2023-04-03T05:58:45;-0.20;99.90
12025;DHT22;6073;53.230;10.444;2023-04-03T06:01:11;-0.10;99.90
12025;DHT22;6073;53.230;10.444;2023-04-03T06:03:36;0.10;99.90
12025;DHT22;6073;53.230;10.444;2023-04-03T06:06:04;0.20;99.90
12025;DHT22;6073;53.230;10.444;2023-04-03T06:08:29;0.30;99.90
12025;DHT22;6073;53.230;10.444;2023-04-03T06:10:55;0.50;99.90
12025;DHT22;6073;53.230;10.444;2023-04-03T06:13:21;1.10;99.90
12025;DHT22;6073;53.230;10.444;2023-04-03T06:15:47;2.20;99.90
12025;DHT22;6073;53.230;10.444;2023-04-03T06:18:12;3.10;99.90
12025;DHT22;6073;53.230;10.444;2023-04-03T06:20:38;4.10;99.90
12025;DHT22;6073;53.230;10.444;2023-04-03T06:23:04;4.80;99.90
12025;DHT22;6073;53.230;10.444;2023-04-03T06:25:29;5.60;99.90
12025;DHT22;6073;53.230;10.444;2023-04-03T06:27:57;6.20;99.90
12025;DHT22;6073;53.230;10.444;2023-04-03T06:30:22;6.70;99.90
12025;DHT22;6073;53.230;10.444;2023-04-03T06:32:48;6.90;99.90
12025;DHT22;6073;53.230;10.444;2023-04-03T06:35:13;7.20;99.90
12025;DHT22;6073;53.230;10.444;2023-04-03T06:37:39;7.90;99.90
12025;DHT22;6073;53.230;10.444;2023-04-03T06:40:05;8.20;99.90
12025;DHT22;6073;53.230;10.444;2023-04-03T06:42:31;8.50;99.90
12025;DHT22;6073;53.230;10.444;2023-04-03T06:44:56;8.60;99.90
12025;DHT22;6073;53.230;10.444;2023-04-03T06:47:22;8.80;99.90
12025;DHT22;6073;53.230;10.444;2023-04-03T06:49:47;9.00;99.90
12025;DHT22;6073;53.230;10.444;2023-04-03T06:52:13;9.30;99.90
12025;DHT22;6073;53.230;10.444;2023-04-03T06:54:39;9.80;99.90
12025;DHT22;6073;53.230;10.444;2023-04-03T06:57:06;9.40;99.90
12025;DHT22;6073;53.230;10.444;2023-04-03T06:59:31;9.50;99.90
12025;DHT22;6073;53.230;10.444;2023-04-03T07:01:57;9.40;99.90
12025;DHT22;6073;53.230;10.444;2023-04-03T07:04:25;9.10;99.90
12025;DHT22;6073;53.230;10.444;2023-04-03T07:06:50;9.20;99.90
12025;DHT22;6073;53.230;10.444;2023-04-03T07:09:16;9.50;99.90
12025;DHT22;6073;53.230;10.444;2023-04-03T07:11:41;9.50;99.90
12025;DHT22;6073;53.230;10.444;2023-04-03T07:14:07;9.70;99.90
12025;DHT22;6073;53.230;10.444;2023-04-03T07:16:34;9.90;99.90
12025;DHT22;6073;53.230;10.444;2023-04-03T07:19:00;9.70;99.90
12025;DHT22;6073;53.230;10.444;2023-04-03T07:21:27;9.40;99.90
12025;DHT22;6073;53.230;10.444;2023-04-03T07:23:53;9.20;99.90
12025;DHT22;6073;53.230;10.444;2023-04-03T07:26:18;9.30;99.90
12025;DHT22;6073;53.230;10.444;2023-04-03T07:28:46;9.90;99.90
12025;DHT22;6073;53.230;10.444;2023-04-03T07:31:14;10.20;99.90
12025;DHT22;6073;53.230;10.444;2023-04-03T07:33:41;10.50;99.90
12025;DHT22;6073;53.230;10.444;2023-04-03T07:36:07;10.20;99.90
12025;DHT22;6073;53.230;10.444;2023-04-03T07:38:34;10.30;99.90
12025;DHT22;6073;53.230;10.444;2023-04-03T07:41:00;10.60;99.90
12025;DHT22;6073;53.230;10.444;2023-04-03T07:43:26;11.10;99.90
12025;DHT22;6073;53.230;10.444;2023-04-03T07:45:52;10.40;99.90
12025;DHT22;6073;53.230;10.444;2023-04-03T07:48:24;10.10;99.90
12025;DHT22;6073;53.230;10.444;2023-04-03T07:50:50;10.80;99.90
12025;DHT22;6073;53.230;10.444;2023-04-03T07:53:17;11.10;99.90
12025;DHT22;6073;53.230;10.444;2023-04-03T07:55:42;11.30;99.90
12025;DHT22;6073;53.230;10.444;2023-04-03T07:58:14;11.00;99.90
12025;DHT22;6073;53.230;10.444;2023-04-03T08:00:40;10.80;99.90
12025;DHT22;6073;53.230;10.444;2023-04-03T08:03:07;11.10;99.90
12025;DHT22;6073;53.230;10.444;2023-04-03T08:05:41;11.40;99.90
12025;DHT22;6073;53.230;10.444;2023-04-03T08:08:07;11.60;99.90
12025;DHT22;6073;53.230;10.444;2023-04-03T08:10:34;11.90;99.90
12025;DHT22;6073;53.230;10.444;2023-04-03T08:13:00;12.40;99.90
12025;DHT22;6073;53.230;10.444;2023-04-03T08:15:25;12.20;99.90
12025;DHT22;6073;53.230;10.444;2023-04-03T08:17:52;12.30;99.90
12025;DHT22;6073;53.230;10.444;2023-04-03T08:20:18;11.90;99.90
12025;DHT22;6073;53.230;10.444;2023-04-03T08:22:43;11.90;99.90
12025;DHT22;6073;53.230;10.444;2023-04-03T08:25:09;11.60;99.90
12025;DHT22;6073;53.230;10.444;2023-04-03T08:27:35;11.50;99.90
12025;DHT22;6073;53.230;10.444;2023-04-03T08:30:01;10.80;99.90
12025;DHT22;6073;53.230;10.444;2023-04-03T08:32:27;10.90;99.90
12025;DHT22;6073;53.230;10.444;2023-04-03T08:34:52;10.90;99.90
12025;DHT22;6073;53.230;10.444;2023-04-03T08:37:18;10.90;99.90
12025;DHT22;6073;53.230;10.444;2023-04-03T08:39:44;10.80;99.90
12025;DHT22;6073;53.230;10.444;2023-04-03T08:47:49;11.00;99.90
12025;DHT22;6073;53.230;10.444;2023-04-03T08:50:19;11.20;99.90
12025;DHT22;6073;53.230;10.444;2023-04-03T08:52:52;11.20;99.90
12025;DHT22;6073;53.230;10.444;2023-04-03T08:55:33;10.90;99.80
12025;DHT22;6073;53.230;10.444;2023-04-03T08:58:05;11.20;99.90
12025;DHT22;6073;53.230;10.444;2023-04-03T09:00:44;11.00;99.90
12025;DHT22;6073;53.230;10.444;2023-04-03T09:03:17;11.60;99.90
12025;DHT22;6073;53.230;10.444;2023-04-03T09:08:28;12.00;99.90
12025;DHT22;6073;53.230;10.444;2023-04-03T09:13:44;12.30;99.00
12025;DHT22;6073;53.230;10.444;2023-04-03T09:16:43;11.50;99.00
12025;DHT22;6073;53.230;10.444;2023-04-03T09:21:50;12.10;99.90
12025;DHT22;6073;53.230;10.444;2023-04-03T09:24:17;12.00;98.00
12025;DHT22;6073;53.230;10.444;2023-04-03T09:26:48;11.80;98.50
12025;DHT22;6073;53.230;10.444;2023-04-03T09:29:21;11.60;98.90
12025;DHT22;6073;53.230;10.444;2023-04-03T09:31:49;11.30;99.20
12025;DHT22;6073;53.230;10.444;2023-04-03T09:34:30;10.80;99.90
12025;DHT22;6073;53.230;10.444;2023-04-03T09:36:59;10.60;99.90
12025;DHT22;6073;53.230;10.444;2023-04-03T09:39:32;10.50;99.30
12025;DHT22;6073;53.230;10.444;2023-04-03T09:42:19;10.30;98.60
12025;DHT22;6073;53.230;10.444;2023-04-03T09:44:57;9.90;99.90
12025;DHT22;6073;53.230;10.444;2023-04-03T09:47:26;9.80;99.90
12025;DHT22;6073;53.230;10.444;2023-04-03T09:52:39;9.20;99.90
12025;DHT22;6073;53.230;10.444;2023-04-03T09:55:25;9.00;99.90
12025;DHT22;6073;53.230;10.444;2023-04-03T09:58:03;9.10;99.90
12025;DHT22;6073;53.230;10.444;2023-04-03T10:00:37;9.20;99.90
12025;DHT22;6073;53.230;10.444;2023-04-03T10:03:04;9.40;99.90
12025;DHT22;6073;53.230;10.444;2023-04-03T10:05:38;9.30;99.90
12025;DHT22;6073;53.230;10.444;2023-04-03T10:10:40;9.30;99.90
12025;DHT22;6073;53.230;10.444;2023-04-03T10:13:19;9.20;99.90
12025;DHT22;6073;53.230;10.444;2023-04-03T10:16:01;9.10;99.90
12025;DHT22;6073;53.230;10.444;2023-04-03T10:18:44;9.20;99.90
12025;DHT22;6073;53.230;10.444;2023-04-03T10:21:35;9.40;99.90
12025;DHT22;6073;53.230;10.444;2023-04-03T10:27:08;8.60;99.90
12025;DHT22;6073;53.230;10.444;2023-04-03T10:35:37;8.40;99.90
12025;DHT22;6073;53.230;10.444;2023-04-03T10:38:24;8.30;99.90
12025;DHT22;6073;53.230;10.444;2023-04-03T10:44:07;7.80;99.90
12025;DHT22;6073;53.230;10.444;2023-04-03T10:46:41;7.70;99.90
12025;DHT22;6073;53.230;10.444;2023-04-03T10:52:13;8.40;99.90
12025;DHT22;6073;53.230;10.444;2023-04-03T10:54:46;9.00;99.90
12025;DHT22;6073;53.230;10.444;2023-04-03T10:57:14;9.50;99.90
12025;DHT22;6073;53.230;10.444;2023-04-03T10:59:53;9.40;99.90
12025;DHT22;6073;53.230;10.444;2023-04-03T11:03:11;9.10;99.90
12025;DHT22;6073;53.230;10.444;2023-04-03T11:05:26;9.10;98.90
12025;DHT22;6073;53.230;10.444;2023-04-03T11:07:56;8.80;98.60
12025;DHT22;6073;53.230;10.444;2023-04-03T11:10:36;8.50;99.50
12025;DHT22;6073;53.230;10.444;2023-04-03T11:13:22;8.30;99.50
12025;DHT22;6073;53.230;10.444;2023-04-03T11:15:53;8.20;99.80
12025;DHT22;6073;53.230;10.444;2023-04-03T11:18:43;8.20;99.90
12025;DHT22;6073;53.230;10.444;2023-04-03T11:21:21;8.20;99.90
12025;DHT22;6073;53.230;10.444;2023-04-03T11:23:48;9.00;99.50
12025;DHT22;6073;53.230;10.444;2023-04-03T11:26:23;9.50;99.70
12025;DHT22;6073;53.230;10.444;2023-04-03T11:28:58;9.50;98.90
12025;DHT22;6073;53.230;10.444;2023-04-03T11:31:31;9.30;99.10
12025;DHT22;6073;53.230;10.444;2023-04-03T11:34:37;8.90;98.70
12025;DHT22;6073;53.230;10.444;2023-04-03T11:37:32;8.90;99.10
12025;DHT22;6073;53.230;10.444;2023-04-03T11:40:07;9.40;99.00
12025;DHT22;6073;53.230;10.444;2023-04-03T11:42:49;9.50;99.60
12025;DHT22;6073;53.230;10.444;2023-04-03T11:48:29;8.70;98.90
12025;DHT22;6073;53.230;10.444;2023-04-03T11:50:47;8.60;98.90
12025;DHT22;6073;53.230;10.444;2023-04-03T11:58:18;8.40;99.90
12025;DHT22;6073;53.230;10.444;2023-04-03T12:08:29;8.10;99.90
12025;DHT22;6073;53.230;10.444;2023-04-03T12:16:30;8.40;99.90
12025;DHT22;6073;53.230;10.444;2023-04-03T12:32:22;9.20;99.50
12025;DHT22;6073;53.230;10.444;2023-04-03T12:40:50;8.90;99.20
12025;DHT22;6073;53.230;10.444;2023-04-03T12:43:42;8.70;99.90
12025;DHT22;6073;53.230;10.444;2023-04-03T12:46:19;8.50;99.50
12025;DHT22;6073;53.230;10.444;2023-04-03T12:48:53;8.40;99.90
12025;DHT22;6073;53.230;10.444;2023-04-03T12:51:34;8.50;99.90
12025;DHT22;6073;53.230;10.444;2023-04-03T12:54:12;8.40;99.90
12025;DHT22;6073;53.230;10.444;2023-04-03T12:56:38;8.40;99.90
12025;DHT22;6073;53.230;10.444;2023-04-03T12:59:27;8.40;99.90
12025;DHT22;6073;53.230;10.444;2023-04-03T13:01:58;8.30;99.90
12025;DHT22;6073;53.230;10.444;2023-04-03T13:04:25;8.20;99.90
12025;DHT22;6073;53.230;10.444;2023-04-03T13:06:51;8.20;99.90
12025;DHT22;6073;53.230;10.444;2023-04-03T13:12:01;8.10;99.90
12025;DHT22;6073;53.230;10.444;2023-04-03T13:14:29;8.20;99.90
12025;DHT22;6073;53.230;10.444;2023-04-03T13:19:35;8.60;99.90
12025;DHT22;6073;53.230;10.444;2023-04-03T13:22:11;8.80;99.90
12025;DHT22;6073;53.230;10.444;2023-04-03T13:24:49;8.70;99.90
12025;DHT22;6073;53.230;10.444;2023-04-03T13:27:15;8.90;99.90
12025;DHT22;6073;53.230;10.444;2023-04-03T13:29:42;8.70;99.90
12025;DHT22;6073;53.230;10.444;2023-04-03T13:32:21;8.60;99.90
12025;DHT22;6073;53.230;10.444;2023-04-03T13:34:48;8.20;99.90
12025;DHT22;6073;53.230;10.444;2023-04-03T13:37:28;8.10;99.90
12025;DHT22;6073;53.230;10.444;2023-04-03T13:42:36;8.00;99.90
12025;DHT22;6073;53.230;10.444;2023-04-03T13:47:45;7.80;99.90
12025;DHT22;6073;53.230;10.444;2023-04-03T13:55:33;8.30;99.90
12025;DHT22;6073;53.230;10.444;2023-04-03T14:00:49;8.40;99.90
12025;DHT22;6073;53.230;10.444;2023-04-03T14:05:51;8.00;99.90
12025;DHT22;6073;53.230;10.444;2023-04-03T14:08:18;8.10;99.90
12025;DHT22;6073;53.230;10.444;2023-04-03T14:10:44;8.20;99.90
12025;DHT22;6073;53.230;10.444;2023-04-03T14:13:14;8.40;99.90
12025;DHT22;6073;53.230;10.444;2023-04-03T14:15:40;8.70;99.90
12025;DHT22;6073;53.230;10.444;2023-04-03T14:18:06;8.70;99.90
12025;DHT22;6073;53.230;10.444;2023-04-03T14:20:32;8.20;99.90
12025;DHT22;6073;53.230;10.444;2023-04-03T14:22:57;7.80;99.90
12025;DHT22;6073;53.230;10.444;2023-04-03T14:25:24;7.40;99.90
12025;DHT22;6073;53.230;10.444;2023-04-03T14:27:52;7.20;99.90
12025;DHT22;6073;53.230;10.444;2023-04-03T14:30:24;7.40;99.90
12025;DHT22;6073;53.230;10.444;2023-04-03T14:32:51;7.60;99.90
12025;DHT22;6073;53.230;10.444;2023-04-03T14:35:18;7.80;99.70
12025;DHT22;6073;53.230;10.444;2023-04-03T14:37:44;8.00;99.90
12025;DHT22;6073;53.230;10.444;2023-04-03T14:40:15;8.30;99.90
12025;DHT22;6073;53.230;10.444;2023-04-03T14:42:41;8.40;99.70
12025;DHT22;6073;53.230;10.444;2023-04-03T14:45:10;8.30;99.10
12025;DHT22;6073;53.230;10.444;2023-04-03T14:47:49;8.00;99.10
12025;DHT22;6073;53.230;10.444;2023-04-03T14:50:18;8.00;99.90
12025;DHT22;6073;53.230;10.444;2023-04-03T14:52:47;8.10;99.90
12025;DHT22;6073;53.230;10.444;2023-04-03T14:55:15;7.90;99.30
12025;DHT22;6073;53.230;10.444;2023-04-03T14:57:41;7.80;99.30
12025;DHT22;6073;53.230;10.444;2023-04-03T15:00:13;7.90;99.90
12025;DHT22;6073;53.230;10.444;2023-04-03T15:02:39;8.00;99.60
12025;DHT22;6073;53.230;10.444;2023-04-03T15:05:08;8.10;99.90
12025;DHT22;6073;53.230;10.444;2023-04-03T15:07:36;8.10;99.70
12025;DHT22;6073;53.230;10.444;2023-04-03T15:12:40;7.90;99.70
12025;DHT22;6073;53.230;10.444;2023-04-03T15:15:06;7.70;99.10
12025;DHT22;6073;53.230;10.444;2023-04-03T15:17:32;7.70;99.40
12025;DHT22;6073;53.230;10.444;2023-04-03T15:19:59;7.70;99.60
12025;DHT22;6073;53.230;10.444;2023-04-03T15:22:25;7.80;99.40
12025;DHT22;6073;53.230;10.444;2023-04-03T15:24:50;7.70;98.90
12025;DHT22;6073;53.230;10.444;2023-04-03T15:27:16;7.70;99.10
12025;DHT22;6073;53.230;10.444;2023-04-03T15:29:43;7.70;99.00
12025;DHT22;6073;53.230;10.444;2023-04-03T15:32:09;7.60;99.50
12025;DHT22;6073;53.230;10.444;2023-04-03T15:34:36;7.60;98.70
12025;DHT22;6073;53.230;10.444;2023-04-03T15:37:01;7.50;98.50
12025;DHT22;6073;53.230;10.444;2023-04-03T15:39:27;7.50;98.80
12025;DHT22;6073;53.230;10.444;2023-04-03T15:41:54;7.60;99.20
12025;DHT22;6073;53.230;10.444;2023-04-03T15:44:22;7.60;99.00
12025;DHT22;6073;53.230;10.444;2023-04-03T15:46:48;7.70;98.20
12025;DHT22;6073;53.230;10.444;2023-04-03T15:49:17;7.80;99.10
12025;DHT22;6073;53.230;10.444;2023-04-03T15:51:43;7.90;98.70
12025;DHT22;6073;53.230;10.444;2023-04-03T15:54:08;7.80;98.10
12025;DHT22;6073;53.230;10.444;2023-04-03T15:56:34;7.80;97.80
12025;DHT22;6073;53.230;10.444;2023-04-03T15:58:59;7.70;98.00
12025;DHT22;6073;53.230;10.444;2023-04-03T16:01:25;7.70;98.00
12025;DHT22;6073;53.230;10.444;2023-04-03T16:03:50;7.50;98.10
12025;DHT22;6073;53.230;10.444;2023-04-03T16:06:17;7.40;98.30
12025;DHT22;6073;53.230;10.444;2023-04-03T16:08:47;7.40;98.30
12025;DHT22;6073;53.230;10.444;2023-04-03T16:11:14;7.40;98.80
12025;DHT22;6073;53.230;10.444;2023-04-03T16:13:39;7.40;99.40
12025;DHT22;6073;53.230;10.444;2023-04-03T16:16:06;7.40;99.90
12025;DHT22;6073;53.230;10.444;2023-04-03T16:18:31;7.50;99.90
12025;DHT22;6073;53.230;10.444;2023-04-03T16:20:59;7.50;99.90
12025;DHT22;6073;53.230;10.444;2023-04-03T16:23:24;7.40;99.80
12025;DHT22;6073;53.230;10.444;2023-04-03T16:25:50;7.40;99.60
12025;DHT22;6073;53.230;10.444;2023-04-03T16:28:17;7.50;99.90
12025;DHT22;6073;53.230;10.444;2023-04-03T16:30:44;7.50;99.90
12025;DHT22;6073;53.230;10.444;2023-04-03T16:33:11;7.40;99.90
12025;DHT22;6073;53.230;10.444;2023-04-03T16:35:37;7.40;99.90
12025;DHT22;6073;53.230;10.444;2023-04-03T16:38:04;7.40;99.90
12025;DHT22;6073;53.230;10.444;2023-04-03T16:40:29;7.20;99.90
12025;DHT22;6073;53.230;10.444;2023-04-03T16:42:55;7.00;99.90
12025;DHT22;6073;53.230;10.444;2023-04-03T16:45:21;7.10;99.90
12025;DHT22;6073;53.230;10.444;2023-04-03T16:47:46;7.10;99.90
12025;DHT22;6073;53.230;10.444;2023-04-03T16:50:12;7.30;99.90
12025;DHT22;6073;53.230;10.444;2023-04-03T16:52:38;7.60;99.90
12025;DHT22;6073;53.230;10.444;2023-04-03T16:55:03;8.20;99.90
12025;DHT22;6073;53.230;10.444;2023-04-03T16:57:29;8.30;99.90
12025;DHT22;6073;53.230;10.444;2023-04-03T16:59:55;8.00;99.90
12025;DHT22;6073;53.230;10.444;2023-04-03T17:02:21;7.50;99.90
12025;DHT22;6073;53.230;10.444;2023-04-03T17:04:50;7.30;99.90
12025;DHT22;6073;53.230;10.444;2023-04-03T17:07:17;7.20;99.90
12025;DHT22;6073;53.230;10.444;2023-04-03T17:09:42;7.10;99.90
12025;DHT22;6073;53.230;10.444;2023-04-03T17:12:08;6.70;99.90
12025;DHT22;6073;53.230;10.444;2023-04-03T17:14:33;6.40;99.90
12025;DHT22;6073;53.230;10.444;2023-04-03T17:16:59;6.10;99.90
12025;DHT22;6073;53.230;10.444;2023-04-03T17:19:25;5.80;99.90
12025;DHT22;6073;53.230;10.444;2023-04-03T17:21:52;5.60;99.90
12025;DHT22;6073;53.230;10.444;2023-04-03T17:24:17;5.50;99.90
12025;DHT22;6073;53.230;10.444;2023-04-03T17:26:43;5.40;99.90
12025;DHT22;6073;53.230;10.444;2023-04-03T17:29:09;5.20;99.90
12025;DHT22;6073;53.230;10.444;2023-04-03T17:31:35;5.10;99.90
12025;DHT22;6073;53.230;10.444;2023-04-03T17:34:01;4.90;99.90